Beverley, Western Australia

12:38 PM AWST on October 23, 2014 (GMT +0800)
York Western Australia | Change Station
CLOSE
Current Station
Personal Weather Station
Location: York, Western Australia
Elevation: 620 ft
Nearby Weather Stations

Elev 620 ft 31.86 °S, 116.76 °E | Updated 21 seconds ago

Scattered Clouds
Scattered Clouds
71.2 °F
Feels Like 76 °F
N
0.0
Wind Variable Wind from West
Gusts 0.0 mph

Today
High -- | Low -- °F
--% Chance of Precip.
Yesterday
High -- | Low -- °F
Precip. -- in
5:23 AM 6:29 PM
Waning Crescent, 1% visible
Pressure 30.01 in
Visibility 6.2 miles
Clouds Scattered Clouds 2800 ft
Heat Index 76 °F
Dew Point 55 °F
Humidity 56%
Rainfall 0.00 in
Snow Depth Not available.
UV 10 out of 12
Pollen Not available.
Air Quality Not available.
Flu Activity Not available.
METAR YPPH 230400Z 24014KT 9999 SCT028 22/13 Q1016 NOSIG

More Conditions Fewer Conditions

Pressure 30.01 in
Visibility 6.2 miles
Clouds Scattered Clouds 2800 ft
Heat Index 76 °F
Dew Point 55 °F
Humidity 56%
Rainfall 0.00 in
Snow Depth Not available.
UV 10 out of 12
Pollen Not available.
Air Quality Not available.
Flu Activity Not available.
METAR YPPH 230400Z 24014KT 9999 SCT028 22/13 Q1016 NOSIG

More Conditions Fewer Conditions

10-Day Weather Forecast

Almanac

Astronomy

Oct. 23, 2014 Rise Set
Actual Time 5:23 AM AWST 6:29 PM AWST
Civil Twilight 4:58 AM AWST 6:55 PM AWST
Nautical Twilight 4:28 AM AWST 7:25 PM AWST
Astronomical Twilight 3:57 AM AWST 7:56 PM AWST
Moon 4:54 AM AWST 5:57 PM AWST
Length of Visible Light 13h 56m
Length of Day
13h 05m
Tomorrow will be 1m 51s longer.
Waning Crescent, 1% of the Moon is Illuminated
Today
Waning Crescent
Oct 23
New
Oct 30
First Quarter
Nov 6
Full
Nov 14
Last Quarter

Yesterday's Extremes

Country Highs Country Lows

Community

WunderPhotos

Upload Photos

1,764,154 photos uploaded!

Nearby

Snow Depth

Not available.

Earthquake Activity

City Distance Mag. Time & Date
No recent earthquake activity has been reported nearby.
Minimum magnitude displayed is 2.5.

Coastal Water Temperatures

Place Temperature
No Stations Reporting

Nearby Weather Stations